createdAt,value
2023-07-24T00:01:57.546Z,12.93
2023-07-24T00:04:24.911Z,12.47
2023-07-24T00:06:52.169Z,16.42
2023-07-24T00:09:19.448Z,15.48
2023-07-24T00:11:46.749Z,13.02
2023-07-24T00:14:14.189Z,13.48
2023-07-24T00:16:41.485Z,11.87
2023-07-24T00:19:08.826Z,11.52
2023-07-24T00:21:36.114Z,12.80
2023-07-24T00:24:03.530Z,12.75
2023-07-24T00:26:30.977Z,13.68
2023-07-24T00:28:58.579Z,12.80
2023-07-24T00:31:25.997Z,13.15
2023-07-24T00:33:53.326Z,14.32
2023-07-24T00:36:20.574Z,13.48
2023-07-24T00:38:47.866Z,11.82
2023-07-24T00:41:15.705Z,13.13
2023-07-24T00:43:43.017Z,11.73
2023-07-24T00:46:11.152Z,12.02
2023-07-24T00:48:39.288Z,13.35
2023-07-24T00:51:08.674Z,12.88
2023-07-24T00:53:36.039Z,12.70
2023-07-24T00:56:03.382Z,13.27
2023-07-24T00:58:30.780Z,12.45
2023-07-24T01:00:58.517Z,11.45
2023-07-24T01:03:34.451Z,12.40
2023-07-24T01:06:05.090Z,12.03
2023-07-24T01:08:32.463Z,15.05
2023-07-24T01:11:03.571Z,15.82
2023-07-24T01:13:32.569Z,12.95
2023-07-24T01:16:27.968Z,14.10
2023-07-24T01:18:55.619Z,15.23
2023-07-24T01:21:34.014Z,15.90
2023-07-24T01:24:06.093Z,14.60
2023-07-24T01:26:33.417Z,13.45
2023-07-24T01:29:00.640Z,15.57
2023-07-24T01:31:28.402Z,14.30
2023-07-24T01:33:55.787Z,12.10
2023-07-24T01:36:23.173Z,12.73
2023-07-24T01:38:50.561Z,12.73
2023-07-24T01:41:17.930Z,10.90
2023-07-24T01:43:45.293Z,12.17
2023-07-24T01:46:12.714Z,15.15
2023-07-24T01:48:40.040Z,13.20
2023-07-24T01:51:07.545Z,15.10
2023-07-24T01:53:34.736Z,12.48
2023-07-24T01:56:02.077Z,13.67
2023-07-24T01:58:29.440Z,12.38
2023-07-24T02:00:57.372Z,13.40
2023-07-24T02:03:24.724Z,18.65
2023-07-24T02:05:52.781Z,16.00
2023-07-24T02:08:20.092Z,16.87
2023-07-24T02:10:51.047Z,14.75
2023-07-24T02:13:18.958Z,15.20
2023-07-24T02:15:50.369Z,13.82
2023-07-24T02:18:19.085Z,13.27
2023-07-24T02:20:52.963Z,16.77
2023-07-24T02:23:21.609Z,15.18
2023-07-24T02:25:53.300Z,13.20
2023-07-24T02:28:20.652Z,15.50
2023-07-24T02:30:48.623Z,14.05
2023-07-24T02:33:16.120Z,16.07
2023-07-24T02:35:43.362Z,13.98
2023-07-24T02:38:10.748Z,13.07
2023-07-24T02:40:41.790Z,15.73
2023-07-24T02:43:09.263Z,14.55
2023-07-24T02:45:37.844Z,15.03
2023-07-24T02:48:05.856Z,14.52
2023-07-24T02:50:34.022Z,16.27
2023-07-24T02:53:02.277Z,14.15
2023-07-24T02:55:29.488Z,13.25
2023-07-24T02:57:56.786Z,17.60
2023-07-24T03:00:25.237Z,15.38
2023-07-24T03:02:53.772Z,15.07
2023-07-24T03:05:21.132Z,17.02
2023-07-24T03:07:48.420Z,17.70
2023-07-24T03:10:15.645Z,17.07
2023-07-24T03:12:42.998Z,16.33
2023-07-24T03:15:10.686Z,14.02
2023-07-24T03:17:38.078Z,16.10
2023-07-24T03:20:19.044Z,16.20
2023-07-24T03:22:46.469Z,15.47
2023-07-24T03:25:14.284Z,14.90
2023-07-24T03:27:41.809Z,15.55
2023-07-24T03:30:09.251Z,14.70
2023-07-24T03:32:37.772Z,14.10
2023-07-24T03:35:06.354Z,14.70
2023-07-24T03:37:35.293Z,14.13
2023-07-24T03:40:02.714Z,14.25
2023-07-24T03:42:32.150Z,16.33
2023-07-24T03:44:59.556Z,16.52
2023-07-24T03:47:27.629Z,15.33
2023-07-24T03:49:55.141Z,14.93
2023-07-24T03:52:22.477Z,13.35
2023-07-24T03:54:49.723Z,15.82
2023-07-24T03:57:17.042Z,16.65
2023-07-24T03:59:44.293Z,15.13
2023-07-24T04:02:11.752Z,14.50
2023-07-24T04:04:39.166Z,17.33
2023-07-24T04:07:06.600Z,14.80
2023-07-24T04:09:33.986Z,15.77
2023-07-24T04:12:01.725Z,14.93
2023-07-24T04:14:29.087Z,14.93
2023-07-24T04:16:56.933Z,14.38
2023-07-24T04:19:24.366Z,13.90
2023-07-24T04:21:51.732Z,18.08
2023-07-24T04:24:19.022Z,14.27
2023-07-24T04:26:46.525Z,14.52
2023-07-24T04:29:13.771Z,15.65
2023-07-24T04:31:41.096Z,14.07
2023-07-24T04:34:08.381Z,14.13
2023-07-24T04:36:35.699Z,12.77
2023-07-24T04:39:02.955Z,17.77
2023-07-24T04:41:30.379Z,14.98
2023-07-24T04:43:57.626Z,15.13
2023-07-24T04:46:24.960Z,14.18
2023-07-24T04:48:52.316Z,16.70
2023-07-24T04:51:19.905Z,14.52
2023-07-24T04:53:47.131Z,15.00
2023-07-24T04:56:14.427Z,17.85
2023-07-24T04:58:41.656Z,14.07
2023-07-24T05:01:09.082Z,16.43
2023-07-24T05:03:36.308Z,16.17
2023-07-24T05:06:03.841Z,15.23
2023-07-24T05:08:31.135Z,14.23
2023-07-24T05:10:58.672Z,15.20
2023-07-24T05:13:26.792Z,14.77
2023-07-24T05:15:54.256Z,15.27
2023-07-24T05:18:21.598Z,15.07
2023-07-24T05:20:49.749Z,17.73
2023-07-24T05:23:17.185Z,17.50
2023-07-24T05:25:44.585Z,14.60
2023-07-24T05:28:11.947Z,15.07
2023-07-24T05:30:39.255Z,12.90
2023-07-24T05:33:06.732Z,15.27
2023-07-24T05:35:34.172Z,16.00
2023-07-24T05:38:01.486Z,16.67
2023-07-24T05:40:29.415Z,13.73
2023-07-24T05:42:56.712Z,15.75
2023-07-24T05:45:24.100Z,14.10
2023-07-24T05:47:51.408Z,16.05
2023-07-24T05:50:18.816Z,17.07
2023-07-24T05:52:46.101Z,12.75
2023-07-24T05:55:13.497Z,14.70
2023-07-24T05:57:40.751Z,14.25
2023-07-24T06:00:08.644Z,13.57
2023-07-24T06:02:38.753Z,11.63
2023-07-24T06:05:06.401Z,15.23
2023-07-24T06:07:33.683Z,12.95
2023-07-24T06:10:01.072Z,12.52
2023-07-24T06:12:28.311Z,13.15
2023-07-24T06:14:55.609Z,14.40
2023-07-24T06:17:22.844Z,11.90
2023-07-24T06:19:50.164Z,14.45
2023-07-24T06:22:17.487Z,14.52
2023-07-24T06:24:44.863Z,13.13
2023-07-24T06:27:12.193Z,15.57
2023-07-24T06:29:40.263Z,14.50
2023-07-24T06:32:08.093Z,11.52
2023-07-24T06:34:35.727Z,13.30
2023-07-24T06:37:16.851Z,13.27
2023-07-24T06:39:49.403Z,14.20
2023-07-24T06:42:16.637Z,11.93
2023-07-24T06:44:43.918Z,11.68
2023-07-24T06:47:11.218Z,12.82
2023-07-24T06:49:38.525Z,13.70
2023-07-24T06:52:06.030Z,17.70
2023-07-24T06:54:33.427Z,15.52
2023-07-24T06:57:00.724Z,11.05
2023-07-24T06:59:28.149Z,13.45
2023-07-24T07:01:55.421Z,10.75
2023-07-24T07:04:22.841Z,12.77
2023-07-24T07:06:50.366Z,11.50
2023-07-24T07:09:17.766Z,12.40
2023-07-24T07:11:46.062Z,11.00
2023-07-24T07:14:13.996Z,11.85
2023-07-24T07:16:42.106Z,11.27
2023-07-24T07:19:10.689Z,10.90
2023-07-24T07:21:38.174Z,11.38
2023-07-24T07:24:05.878Z,12.85
2023-07-24T07:26:33.338Z,12.02
2023-07-24T07:29:00.870Z,11.67
2023-07-24T07:31:28.196Z,13.10
2023-07-24T07:33:55.632Z,12.10
2023-07-24T07:36:23.997Z,10.93
2023-07-24T07:38:51.383Z,11.90
2023-07-24T07:41:18.693Z,11.17
2023-07-24T07:43:46.074Z,12.27
2023-07-24T07:46:13.332Z,12.95
2023-07-24T07:48:42.144Z,15.18
2023-07-24T07:51:09.417Z,11.15
2023-07-24T07:53:36.982Z,11.63
2023-07-24T07:56:04.390Z,13.57
2023-07-24T07:58:31.800Z,15.40
2023-07-24T08:00:59.235Z,13.23
2023-07-24T08:03:26.559Z,11.93
2023-07-24T08:05:58.186Z,10.63
2023-07-24T08:08:25.625Z,13.35
2023-07-24T08:10:52.878Z,10.98
2023-07-24T08:13:20.200Z,11.45
2023-07-24T08:15:47.563Z,14.80
2023-07-24T08:18:15.218Z,13.53
2023-07-24T08:20:42.537Z,13.98
2023-07-24T08:23:09.905Z,10.95
2023-07-24T08:25:37.167Z,12.20
2023-07-24T08:28:06.663Z,11.77
2023-07-24T08:30:35.193Z,12.63
2023-07-24T08:33:02.627Z,12.25
2023-07-24T08:35:30.260Z,13.10
2023-07-24T08:37:57.933Z,13.27
2023-07-24T08:40:25.237Z,12.90
2023-07-24T08:42:52.486Z,12.90
2023-07-24T08:45:19.852Z,13.73
2023-07-24T08:47:47.187Z,11.20
2023-07-24T08:50:16.522Z,14.95
2023-07-24T08:52:46.110Z,13.90
2023-07-24T08:55:13.573Z,12.83
2023-07-24T08:57:41.011Z,12.43
2023-07-24T09:00:08.820Z,13.93
2023-07-24T09:02:36.239Z,12.15
2023-07-24T09:05:04.797Z,14.00
2023-07-24T09:07:32.653Z,11.67
2023-07-24T09:10:00.294Z,11.57
2023-07-24T09:12:27.770Z,11.77
2023-07-24T09:15:08.230Z,11.98
2023-07-24T09:17:36.311Z,12.05
2023-07-24T09:20:05.177Z,13.07
2023-07-24T09:22:34.421Z,10.70
2023-07-24T09:25:04.598Z,11.35
2023-07-24T09:27:33.134Z,13.93
2023-07-24T09:30:01.527Z,16.02
2023-07-24T09:32:29.269Z,12.87
2023-07-24T09:34:56.631Z,13.63
2023-07-24T09:37:24.682Z,15.43
2023-07-24T09:39:53.889Z,13.10
2023-07-24T09:42:30.438Z,12.35
2023-07-24T09:44:57.885Z,12.33
2023-07-24T09:47:51.872Z,13.23
2023-07-24T09:50:14.385Z,11.88
2023-07-24T09:52:42.974Z,13.57
2023-07-24T09:55:19.632Z,14.35
2023-07-24T09:57:46.969Z,12.93
2023-07-24T10:00:14.536Z,14.38
2023-07-24T10:02:41.965Z,12.70
2023-07-24T10:05:09.296Z,14.55
2023-07-24T10:07:36.689Z,14.18
2023-07-24T10:10:04.023Z,12.10
2023-07-24T10:12:32.543Z,12.32
2023-07-24T10:15:00.025Z,12.55
2023-07-24T10:17:41.292Z,12.85
2023-07-24T10:20:12.577Z,17.00
2023-07-24T10:22:43.264Z,17.17
2023-07-24T10:25:11.240Z,13.10
2023-07-24T10:27:46.026Z,15.45
2023-07-24T10:32:49.064Z,11.57
2023-07-24T10:35:19.065Z,13.53
2023-07-24T10:37:46.388Z,13.32
2023-07-24T10:40:22.745Z,13.52
2023-07-24T10:43:09.162Z,13.18
2023-07-24T10:45:52.847Z,14.68
2023-07-24T10:48:25.497Z,13.47
2023-07-24T10:50:54.632Z,14.55
2023-07-24T10:53:23.426Z,15.02
2023-07-24T10:55:54.612Z,13.43
2023-07-24T10:58:21.968Z,14.00
2023-07-24T11:00:49.235Z,19.00
2023-07-24T11:03:16.671Z,14.68
2023-07-24T11:05:44.783Z,14.82
2023-07-24T11:08:16.145Z,15.93
2023-07-24T11:10:49.969Z,17.38
2023-07-24T11:13:17.903Z,18.30
2023-07-24T11:15:45.608Z,13.50
2023-07-24T11:18:14.252Z,13.80
2023-07-24T11:20:55.386Z,14.73
2023-07-24T11:23:23.351Z,13.77
2023-07-24T11:25:54.474Z,13.57
2023-07-24T11:28:21.838Z,12.23
2023-07-24T11:30:50.264Z,15.30
2023-07-24T11:33:19.564Z,15.73
2023-07-24T11:35:47.337Z,13.85
2023-07-24T11:38:14.671Z,15.33
2023-07-24T11:40:42.953Z,17.05
2023-07-24T11:43:20.919Z,17.27
2023-07-24T11:45:57.758Z,15.10
2023-07-24T11:48:25.629Z,16.33
2023-07-24T11:50:55.869Z,14.10
2023-07-24T11:53:31.322Z,17.25
2023-07-24T11:56:02.605Z,15.23
2023-07-24T11:58:30.586Z,16.92
2023-07-24T12:00:58.013Z,15.25
2023-07-24T12:03:26.593Z,18.20
2023-07-24T12:05:54.094Z,15.27
2023-07-24T12:08:24.850Z,15.90
2023-07-24T12:10:52.407Z,16.55
2023-07-24T12:13:21.860Z,17.70
2023-07-24T12:15:49.930Z,16.77
2023-07-24T12:18:17.195Z,19.00
2023-07-24T12:20:44.536Z,19.92
2023-07-24T12:23:11.823Z,17.35
2023-07-24T12:25:39.204Z,18.67
2023-07-24T12:28:06.570Z,18.07
2023-07-24T12:30:33.898Z,17.02
2023-07-24T12:33:01.184Z,17.85
2023-07-24T12:35:28.601Z,20.58
2023-07-24T12:37:55.893Z,17.23
2023-07-24T12:40:23.316Z,18.27
2023-07-24T12:42:50.649Z,19.77
2023-07-24T12:45:18.036Z,18.42
2023-07-24T12:47:45.350Z,19.38
2023-07-24T12:50:12.930Z,18.70
2023-07-24T12:52:40.410Z,17.10
2023-07-24T12:55:08.649Z,17.95
2023-07-24T12:57:36.084Z,18.88
2023-07-24T13:00:04.153Z,17.63
2023-07-24T13:02:33.006Z,20.25
2023-07-24T13:05:00.362Z,18.43
2023-07-24T13:07:27.686Z,21.90
2023-07-24T13:09:55.126Z,18.58
2023-07-24T13:12:22.589Z,18.98
2023-07-24T13:14:50.061Z,18.00
2023-07-24T13:17:17.406Z,19.47
2023-07-24T13:19:44.735Z,18.08
2023-07-24T13:22:12.055Z,21.52
2023-07-24T13:24:39.536Z,20.00
2023-07-24T13:27:07.246Z,20.88
2023-07-24T13:29:34.556Z,17.67
2023-07-24T13:32:01.812Z,18.58
2023-07-24T13:34:29.291Z,20.67
2023-07-24T13:36:56.553Z,20.38
2023-07-24T13:39:23.882Z,22.13
2023-07-24T13:41:51.117Z,17.93
2023-07-24T13:44:18.634Z,18.10
2023-07-24T13:46:45.853Z,18.77
2023-07-24T13:49:13.365Z,18.77
2023-07-24T13:51:40.644Z,17.98
2023-07-24T13:54:08.037Z,16.00
2023-07-24T13:56:36.936Z,21.67
2023-07-24T13:59:04.530Z,19.23
2023-07-24T14:01:32.205Z,16.50
2023-07-24T14:04:01.759Z,18.30
2023-07-24T14:06:29.162Z,18.77
2023-07-24T14:08:56.439Z,19.05
2023-07-24T14:11:23.695Z,22.50
2023-07-24T14:13:51.033Z,17.90
2023-07-24T14:16:18.936Z,19.67
2023-07-24T14:18:46.333Z,18.70
2023-07-24T14:21:13.598Z,19.90
2023-07-24T14:23:40.905Z,15.50
2023-07-24T14:26:08.445Z,19.90
2023-07-24T14:28:35.742Z,20.50
2023-07-24T14:31:03.014Z,18.83
2023-07-24T14:33:30.324Z,16.88
2023-07-24T14:35:57.594Z,17.25
2023-07-24T14:38:24.976Z,16.15
2023-07-24T14:40:52.221Z,17.35
2023-07-24T14:43:19.640Z,16.50
2023-07-24T14:45:47.163Z,17.95
2023-07-24T14:48:15.745Z,19.50
2023-07-24T14:50:43.145Z,18.60
2023-07-24T14:53:10.521Z,16.60
2023-07-24T14:55:37.756Z,17.30
2023-07-24T14:58:05.169Z,19.50
2023-07-24T15:00:33.442Z,19.55
2023-07-24T15:03:00.869Z,20.33
2023-07-24T15:05:28.153Z,17.20
2023-07-24T15:07:55.455Z,18.77
2023-07-24T15:10:22.840Z,17.83
2023-07-24T15:12:50.306Z,19.95
2023-07-24T15:15:17.571Z,17.35
2023-07-24T15:17:44.896Z,18.40
2023-07-24T15:20:14.165Z,18.47
2023-07-24T15:22:41.657Z,17.50
2023-07-24T15:25:09.131Z,17.88
2023-07-24T15:27:36.612Z,17.55
2023-07-24T15:30:04.366Z,21.38
2023-07-24T15:32:31.784Z,17.83
2023-07-24T15:34:59.045Z,19.73
2023-07-24T15:37:27.055Z,17.23
2023-07-24T15:39:54.322Z,16.05
2023-07-24T15:42:23.578Z,20.13
2023-07-24T15:44:51.303Z,19.57
2023-07-24T15:47:18.721Z,16.40
2023-07-24T15:49:46.198Z,16.80
2023-07-24T15:52:13.607Z,17.88
2023-07-24T15:54:40.866Z,21.35
2023-07-24T15:57:08.229Z,17.97
2023-07-24T15:59:35.503Z,15.88
2023-07-24T16:02:04.010Z,19.05
2023-07-24T16:04:31.381Z,19.33
2023-07-24T16:07:00.222Z,18.88
2023-07-24T16:09:27.494Z,15.83
2023-07-24T16:11:54.899Z,18.50
2023-07-24T16:14:22.139Z,18.67
2023-07-24T16:16:49.434Z,18.77
2023-07-24T16:19:21.096Z,18.92
2023-07-24T16:21:49.916Z,17.30
2023-07-24T16:24:18.567Z,18.17
2023-07-24T16:26:46.125Z,16.42
2023-07-24T16:29:13.414Z,16.27
2023-07-24T16:31:40.844Z,16.88
2023-07-24T16:34:08.195Z,17.03
2023-07-24T16:36:36.400Z,22.45
2023-07-24T16:39:06.260Z,17.30
2023-07-24T16:41:33.925Z,17.48
2023-07-24T16:44:03.054Z,20.90
2023-07-24T16:46:31.170Z,18.57
2023-07-24T16:48:58.639Z,16.42
2023-07-24T16:51:26.004Z,17.42
2023-07-24T16:53:53.374Z,16.02
2023-07-24T16:56:20.726Z,16.77
2023-07-24T16:58:48.098Z,16.33
2023-07-24T17:01:15.545Z,17.40
2023-07-24T17:03:42.884Z,15.93
2023-07-24T17:06:10.263Z,17.33
2023-07-24T17:08:37.588Z,17.40
2023-07-24T17:11:04.959Z,17.13
2023-07-24T17:13:32.148Z,16.20
2023-07-24T17:15:59.495Z,17.45
2023-07-24T17:18:26.751Z,15.10
2023-07-24T17:20:54.078Z,16.92
2023-07-24T17:23:21.338Z,16.93
2023-07-24T17:25:48.636Z,16.98
2023-07-24T17:28:15.906Z,16.33
2023-07-24T17:30:43.270Z,16.20
2023-07-24T17:33:10.546Z,14.90
2023-07-24T17:35:37.933Z,16.20
2023-07-24T17:38:05.184Z,13.45
2023-07-24T17:40:34.686Z,17.65
2023-07-24T17:43:01.938Z,18.05
2023-07-24T17:45:29.285Z,21.95
2023-07-24T17:47:56.616Z,16.13
2023-07-24T17:50:24.517Z,16.60
2023-07-24T17:52:51.883Z,14.70
2023-07-24T17:55:19.212Z,16.35
2023-07-24T17:57:50.563Z,14.10
2023-07-24T18:00:18.755Z,16.03
2023-07-24T18:02:46.166Z,18.35
2023-07-24T18:05:13.751Z,18.85
2023-07-24T18:07:41.082Z,17.60
2023-07-24T18:10:09.016Z,14.93
2023-07-24T18:12:36.809Z,15.27
2023-07-24T18:15:04.543Z,17.02
2023-07-24T18:17:31.800Z,17.55
2023-07-24T18:19:59.236Z,15.60
2023-07-24T18:22:26.551Z,15.10
2023-07-24T18:24:53.956Z,15.03
2023-07-24T18:27:22.118Z,13.38
2023-07-24T18:29:49.515Z,15.88
2023-07-24T18:32:16.807Z,13.18
2023-07-24T18:34:44.154Z,14.02
2023-07-24T18:37:11.556Z,13.10
2023-07-24T18:39:38.963Z,14.90
2023-07-24T18:42:06.838Z,13.35
2023-07-24T18:44:35.647Z,13.98
2023-07-24T18:47:03.013Z,16.73
2023-07-24T18:49:30.520Z,12.13
2023-07-24T18:51:57.834Z,15.27
2023-07-24T18:54:25.200Z,15.48
2023-07-24T18:56:52.446Z,13.77
2023-07-24T18:59:19.840Z,14.52
2023-07-24T19:01:48.064Z,14.80
2023-07-24T19:04:15.435Z,11.30
2023-07-24T19:06:42.754Z,13.30
2023-07-24T19:09:10.161Z,14.93
2023-07-24T19:11:37.738Z,13.00
2023-07-24T19:14:05.112Z,12.70
2023-07-24T19:16:32.487Z,12.68
2023-07-24T19:19:03.661Z,16.83
2023-07-24T19:21:31.967Z,12.35
2023-07-24T19:23:59.454Z,10.60
2023-07-24T19:26:26.803Z,13.43
2023-07-24T19:28:54.559Z,11.98
2023-07-24T19:31:21.893Z,11.77
2023-07-24T19:33:49.132Z,12.40
2023-07-24T19:36:16.538Z,10.55
2023-07-24T19:38:43.837Z,12.27
2023-07-24T19:41:11.275Z,10.27
2023-07-24T19:43:38.623Z,11.00
2023-07-24T19:46:07.672Z,11.35
2023-07-24T19:48:35.358Z,11.63
2023-07-24T19:51:04.168Z,10.47
2023-07-24T19:53:31.490Z,13.40
2023-07-24T19:55:58.956Z,12.40
2023-07-24T19:58:33.933Z,15.00
2023-07-24T20:01:01.621Z,13.20
2023-07-24T20:03:29.391Z,13.07
2023-07-24T20:06:02.052Z,13.02
2023-07-24T20:08:31.347Z,13.95
2023-07-24T20:11:01.175Z,12.73
2023-07-24T20:13:28.859Z,14.43
2023-07-24T20:15:57.716Z,10.57
2023-07-24T20:18:25.153Z,11.85
2023-07-24T20:20:52.503Z,16.98
2023-07-24T20:23:20.047Z,12.15
2023-07-24T20:25:48.310Z,12.77
2023-07-24T20:28:15.653Z,11.40
2023-07-24T20:30:42.992Z,13.48
2023-07-24T20:33:12.265Z,11.32
2023-07-24T20:35:39.699Z,12.70
2023-07-24T20:38:07.003Z,10.25
2023-07-24T20:40:34.317Z,15.33
2023-07-24T20:43:05.476Z,10.15
2023-07-24T20:45:32.866Z,13.60
2023-07-24T20:48:00.485Z,11.70
2023-07-24T20:50:27.877Z,11.35
2023-07-24T20:52:55.100Z,12.97
2023-07-24T20:55:22.461Z,9.63
2023-07-24T20:57:49.781Z,11.98
2023-07-24T21:00:17.154Z,11.38
2023-07-24T21:02:44.439Z,9.65
2023-07-24T21:05:11.838Z,11.03
2023-07-24T21:07:39.999Z,10.75
2023-07-24T21:10:07.722Z,11.57
2023-07-24T21:12:34.981Z,9.02
2023-07-24T21:15:02.314Z,8.93
2023-07-24T21:17:29.570Z,11.20
2023-07-24T21:19:56.937Z,10.00
2023-07-24T21:22:25.111Z,8.80
2023-07-24T21:24:52.544Z,11.18
2023-07-24T21:27:19.823Z,12.48
2023-07-24T21:29:47.212Z,9.63
2023-07-24T21:32:14.466Z,10.75
2023-07-24T21:34:41.757Z,10.75
2023-07-24T21:37:09.079Z,10.38
2023-07-24T21:39:36.333Z,11.20
2023-07-24T21:42:03.829Z,8.27
2023-07-24T21:44:31.195Z,10.85
2023-07-24T21:46:58.473Z,11.48
2023-07-24T21:49:25.828Z,8.43
2023-07-24T21:51:53.124Z,11.07
2023-07-24T21:54:20.440Z,13.67
2023-07-24T21:56:47.792Z,11.77
2023-07-24T21:59:15.549Z,14.48
2023-07-24T22:01:42.827Z,12.20
2023-07-24T22:04:10.198Z,8.80
2023-07-24T22:06:37.494Z,13.10
2023-07-24T22:09:04.786Z,12.25
2023-07-24T22:11:34.234Z,10.48
2023-07-24T22:14:01.648Z,12.52
2023-07-24T22:16:28.936Z,11.18
2023-07-24T22:18:56.302Z,10.73
2023-07-24T22:21:23.599Z,12.70
2023-07-24T22:23:51.047Z,10.07
2023-07-24T22:26:18.353Z,12.10
2023-07-24T22:28:45.733Z,10.00
2023-07-24T22:31:13.056Z,10.30
2023-07-24T22:33:40.448Z,12.40
2023-07-24T22:36:07.758Z,12.90
2023-07-24T22:38:35.116Z,11.23
2023-07-24T22:41:20.611Z,9.95
2023-07-24T22:43:47.968Z,13.87
2023-07-24T22:46:15.349Z,9.85
2023-07-24T22:48:42.887Z,10.00
2023-07-24T22:51:10.495Z,12.82
2023-07-24T22:53:37.807Z,11.05
2023-07-24T22:56:09.263Z,9.53
2023-07-24T22:59:14.904Z,10.55
2023-07-24T23:01:42.268Z,11.05
2023-07-24T23:04:09.522Z,13.27
2023-07-24T23:06:36.854Z,11.90
2023-07-24T23:09:04.194Z,11.63
2023-07-24T23:11:32.661Z,11.38
2023-07-24T23:14:00.095Z,11.23
2023-07-24T23:16:27.550Z,11.52
2023-07-24T23:18:54.882Z,9.52
2023-07-24T23:21:22.186Z,7.87
2023-07-24T23:23:49.518Z,10.70
2023-07-24T23:26:16.922Z,8.02
2023-07-24T23:28:44.361Z,8.35
2023-07-24T23:31:11.789Z,8.52
2023-07-24T23:33:39.830Z,9.27
2023-07-24T23:36:10.160Z,10.32
2023-07-24T23:38:37.707Z,10.32
2023-07-24T23:41:05.945Z,10.00
2023-07-24T23:43:33.567Z,10.27
2023-07-24T23:46:00.943Z,12.67
2023-07-24T23:48:28.338Z,9.70
2023-07-24T23:50:55.592Z,11.27
2023-07-24T23:53:22.990Z,11.60
2023-07-24T23:55:50.251Z,10.50
2023-07-24T23:58:17.509Z,9.57
